Time;durP1;ratioP1;P1;durP2;ratioP2;P2;SDS_P1;SDS_P2;PMS_P1;PMS_P2;Temp;Humidity;BMP_temperature;BMP_pressure;BME280_temperature;BME280_humidity;BME280_pressure;Samples;Min_cycle;Max_cycle;Signal;HPM_P1;HPM_P2
2021/06/23 07:12:53;;;;;;;13.32;8.05;;;;;;;20.35;70.88;98647.16;5045505;23;20090;-72
2021/06/23 07:15:19;;;;;;;10.85;8.13;;;;;;;20.44;70.98;98639.47;5009938;28;20062;-75
2021/06/23 07:17:44;;;;;;;10.65;6.95;;;;;;;20.52;70.70;98644.03;5011937;28;20018;-74
2021/06/23 07:20:10;;;;;;;19.17;7.57;;;;;;;20.58;70.82;98644.59;5011726;28;20486;-75
2021/06/23 07:22:36;;;;;;;11.52;8.00;;;;;;;20.68;70.54;98651.59;5011937;28;20354;-77
2021/06/23 07:25:03;;;;;;;10.90;6.93;;;;;;;20.79;70.66;98646.31;5011312;28;20025;-79
2021/06/23 07:27:28;;;;;;;15.23;7.85;;;;;;;20.95;70.24;98644.31;5011278;28;20084;-79
2021/06/23 07:29:54;;;;;;;10.27;7.18;;;;;;;21.06;69.95;98646.56;5001247;28;20034;-77
2021/06/23 07:32:26;;;;;;;11.00;7.45;;;;;;;21.10;70.10;98645.47;5009703;28;20057;-74
2021/06/23 07:37:17;;;;;;;11.40;7.43;;;;;;;21.20;69.79;98644.09;5008481;28;20045;-72
2021/06/23 07:39:43;;;;;;;11.48;7.40;;;;;;;21.22;69.49;98647.31;5010955;28;20038;-75
2021/06/23 07:42:09;;;;;;;9.57;7.35;;;;;;;21.24;69.23;98646.97;5010064;28;20034;-74
2021/06/23 07:47:41;;;;;;;12.45;7.57;;;;;;;21.20;68.70;98648.88;4992932;28;20076;-74
2021/06/23 07:50:08;;;;;;;10.48;7.53;;;;;;;21.19;68.64;98656.44;4994150;28;20038;-74
2021/06/23 07:52:45;;;;;;;12.35;7.95;;;;;;;21.21;69.03;98650.50;4999734;28;20031;-74
2021/06/23 07:55:40;;;;;;;11.18;8.10;;;;;;;21.23;68.75;98648.16;5010566;28;20065;-73
2021/06/23 08:09:47;;;;;;;16.55;8.65;;;;;;;21.24;68.65;98655.34;5012036;28;20134;-73
2021/06/23 08:12:17;;;;;;;11.65;9.13;;;;;;;21.27;68.35;98655.41;5010035;28;20383;-74
2021/06/23 08:14:43;;;;;;;17.15;8.18;;;;;;;21.32;68.31;98662.72;5013562;28;20040;-77
2021/06/23 08:17:09;;;;;;;14.75;8.65;;;;;;;21.33;68.39;98667.13;5014793;28;20021;-74
2021/06/23 08:19:36;;;;;;;13.52;8.68;;;;;;;21.34;68.03;98659.53;5012124;28;20033;-73
2021/06/23 08:22:01;;;;;;;12.85;8.60;;;;;;;21.27;67.93;98666.56;5012556;28;20042;-74
2021/06/23 08:24:26;;;;;;;14.55;10.40;;;;;;;21.24;68.14;98669.28;5013234;28;20392;-74
2021/06/23 08:26:52;;;;;;;18.40;10.00;;;;;;;21.27;68.26;98669.38;5013225;28;20061;-75
2021/06/23 08:29:17;;;;;;;16.27;10.63;;;;;;;21.33;67.95;98675.47;5011440;28;20034;-77
2021/06/23 08:31:43;;;;;;;13.40;9.45;;;;;;;21.34;67.97;98679.91;5013859;28;20061;-75
2021/06/23 08:34:08;;;;;;;14.10;9.77;;;;;;;21.32;67.80;98678.63;5011870;28;20037;-74
2021/06/23 08:36:34;;;;;;;13.45;9.73;;;;;;;21.29;68.04;98688.53;5011576;28;20025;-76
2021/06/23 08:38:59;;;;;;;14.27;9.52;;;;;;;21.28;68.00;98681.34;5015929;28;20030;-77
2021/06/23 08:41:26;;;;;;;15.07;10.55;;;;;;;21.27;68.12;98683.31;5012468;28;20034;-79
2021/06/23 08:43:54;;;;;;;15.50;10.63;;;;;;;21.26;68.11;98681.69;5016252;28;20115;-77
2021/06/23 08:46:20;;;;;;;12.70;9.30;;;;;;;21.35;67.95;98694.63;5010710;28;20045;-77
2021/06/23 08:48:45;;;;;;;13.50;9.60;;;;;;;21.37;67.85;98686.72;5010057;28;20034;-75
2021/06/23 08:51:11;;;;;;;16.42;11.50;;;;;;;21.42;67.71;98700.38;5016768;28;20033;-76
2021/06/23 08:53:36;;;;;;;17.02;10.55;;;;;;;21.49;67.67;98694.16;5014717;28;20026;-74
2021/06/23 08:56:05;;;;;;;18.20;10.88;;;;;;;21.58;67.55;98691.19;5014142;28;20037;-78
2021/06/23 08:58:30;;;;;;;15.20;10.00;;;;;;;21.64;67.41;98690.53;5012129;28;20541;-75
2021/06/23 09:00:56;;;;;;;14.13;10.35;;;;;;;21.78;67.55;98692.84;5012432;28;20033;-75
2021/06/23 09:03:21;;;;;;;18.23;10.23;;;;;;;21.93;67.38;98693.16;5014466;28;20457;-78
2021/06/23 09:05:52;;;;;;;15.60;10.75;;;;;;;22.03;67.07;98694.53;5019145;28;20426;-77
2021/06/23 09:08:43;;;;;;;20.02;10.25;;;;;;;22.13;67.23;98694.75;5015491;28;20034;-79
2021/06/23 09:11:20;;;;;;;28.35;18.00;;;;;;;22.13;66.52;98700.34;5007058;28;20065;-79
2021/06/23 09:13:45;;;;;;;17.38;11.68;;;;;;;22.22;66.20;98688.91;5013704;28;20038;-78
2021/06/23 09:16:11;;;;;;;16.42;12.30;;;;;;;22.39;66.08;98690.47;5018265;28;20030;-74
2021/06/23 09:18:39;;;;;;;19.67;14.52;;;;;;;22.60;65.89;98690.09;5017896;28;20492;-76
2021/06/23 09:21:11;;;;;;;15.90;10.80;;;;;;;22.78;65.88;98686.00;5016968;28;20112;-78
2021/06/23 09:23:54;;;;;;;17.67;11.07;;;;;;;22.92;65.68;98694.59;5014202;28;20064;-83
2021/06/23 09:26:21;;;;;;;15.23;10.52;;;;;;;23.11;65.04;98690.13;5016845;28;20553;-77
2021/06/23 09:29:11;;;;;;;25.95;18.15;;;;;;;23.20;64.47;98694.25;5017770;28;20032;-80
2021/06/23 09:31:56;;;;;;;17.00;11.32;;;;;;;23.23;64.08;98695.53;5012717;28;20094;-76
2021/06/23 09:34:27;;;;;;;15.70;11.40;;;;;;;23.24;64.29;98693.53;5016945;28;20453;-79
2021/06/23 09:36:53;;;;;;;15.45;10.40;;;;;;;23.29;63.84;98701.63;5017291;28;20034;-81
2021/06/23 09:39:21;;;;;;;33.72;19.77;;;;;;;23.19;63.87;98697.44;5012056;28;20556;-76
2021/06/23 09:41:48;;;;;;;30.45;16.70;;;;;;;23.14;62.76;98703.34;5013571;28;20405;-75
2021/06/23 09:44:14;;;;;;;17.17;11.38;;;;;;;23.13;63.17;98696.94;5012493;28;20066;-76
2021/06/23 09:46:41;;;;;;;21.35;12.43;;;;;;;23.25;63.30;98704.34;5018684;28;20034;-79
2021/06/23 09:49:17;;;;;;;18.25;12.73;;;;;;;23.26;63.02;98696.78;5016367;28;20117;-78
2021/06/23 09:51:47;;;;;;;18.15;13.05;;;;;;;23.24;62.78;98699.13;5019848;28;20801;-79
2021/06/23 09:54:14;;;;;;;16.98;12.57;;;;;;;23.23;62.61;98701.13;5023468;28;20026;-80
2021/06/23 09:56:45;;;;;;;18.02;13.65;;;;;;;23.22;62.27;98699.53;5017054;28;20029;-76
2021/06/23 09:59:23;;;;;;;28.73;19.05;;;;;;;23.20;62.64;98704.66;5016083;28;20153;-80
2021/06/23 10:01:48;;;;;;;18.42;11.98;;;;;;;23.37;62.41;98692.16;5013834;28;20037;-78
2021/06/23 10:04:14;;;;;;;18.63;11.82;;;;;;;23.51;62.38;98691.56;5007645;28;20026;-75
2021/06/23 10:06:45;;;;;;;18.90;13.15;;;;;;;23.59;61.97;98698.88;5010130;28;20483;-78
2021/06/23 10:09:18;;;;;;;24.08;15.32;;;;;;;23.85;62.14;98688.81;5022720;28;20037;-78
2021/06/23 10:11:44;;;;;;;22.13;15.02;;;;;;;24.07;60.76;98677.88;5021934;28;20022;-81
2021/06/23 10:14:10;;;;;;;22.48;15.48;;;;;;;24.27;60.36;98675.72;5021850;28;20084;-76
2021/06/23 10:16:36;;;;;;;22.08;14.13;;;;;;;24.53;61.31;98682.41;5020578;28;20022;-78
2021/06/23 10:19:04;;;;;;;25.35;15.93;;;;;;;24.84;60.11;98683.09;5019619;28;20029;-75
2021/06/23 10:21:30;;;;;;;21.88;14.57;;;;;;;25.01;60.64;98683.66;5019417;28;20079;-79
2021/06/23 10:23:58;;;;;;;23.55;14.77;;;;;;;25.07;58.39;98693.31;5018659;28;20032;-80
2021/06/23 10:26:27;;;;;;;23.05;14.98;;;;;;;25.07;59.45;98693.31;5020167;28;20021;-86
2021/06/23 10:28:55;;;;;;;22.25;15.55;;;;;;;24.94;57.25;98690.81;5028263;28;20018;-82
2021/06/23 10:31:25;;;;;;;20.80;14.43;;;;;;;24.68;58.23;98697.38;5022618;28;20038;-80
2021/06/23 10:33:51;;;;;;;17.50;13.00;;;;;;;24.56;58.53;98703.25;5014273;28;20038;-77
2021/06/23 10:36:19;;;;;;;18.77;13.57;;;;;;;24.52;58.96;98697.59;5014603;28;20030;-77
2021/06/23 10:38:46;;;;;;;18.77;12.98;;;;;;;24.46;58.98;98693.53;5014395;28;20036;-80
2021/06/23 10:41:12;;;;;;;29.98;13.85;;;;;;;24.42;58.93;98690.72;5021514;28;20187;-78
2021/06/23 10:43:38;;;;;;;16.73;12.90;;;;;;;24.35;58.80;98691.41;5019056;28;20037;-77
2021/06/23 10:46:04;;;;;;;16.23;12.55;;;;;;;24.36;59.03;98693.03;5019081;28;20026;-76
2021/06/23 10:48:54;;;;;;;29.65;14.27;;;;;;;24.48;59.29;98696.75;5019576;28;20081;-79
2021/06/23 10:51:25;;;;;;;22.27;14.50;;;;;;;24.52;59.43;98700.41;5037132;28;20029;-80
2021/06/23 10:53:50;;;;;;;18.45;12.55;;;;;;;24.59;59.32;98691.25;5046782;28;20112;-78
2021/06/23 10:56:42;;;;;;;18.73;13.38;;;;;;;24.67;59.47;98695.75;5047009;28;20060;-79
2021/06/23 10:59:31;;;;;;;18.55;14.15;;;;;;;24.64;59.01;98702.94;5044949;28;20105;-77
2021/06/23 11:02:12;;;;;;;22.20;15.13;;;;;;;24.60;58.88;98704.09;5034731;28;20033;-78
2021/06/23 11:05:01;;;;;;;20.08;14.80;;;;;;;24.46;58.55;98707.56;5015363;28;20453;-78
2021/06/23 11:07:41;;;;;;;21.00;14.75;;;;;;;24.38;58.75;98696.25;4996607;28;20101;-78
2021/06/23 11:10:15;;;;;;;26.65;16.35;;;;;;;24.35;58.54;98713.03;5000250;28;20033;-76
2021/06/23 11:12:47;;;;;;;21.60;15.00;;;;;;;24.31;59.13;98701.00;4999896;28;20046;-76
2021/06/23 11:15:20;;;;;;;20.67;15.48;;;;;;;24.26;58.80;98701.31;5007767;28;20034;-80
2021/06/23 11:17:47;;;;;;;22.45;13.15;;;;;;;24.24;58.90;98704.53;5014907;28;20022;-82
2021/06/23 11:20:19;;;;;;;21.67;14.00;;;;;;;24.21;59.32;98699.69;5015176;28;20497;-82
2021/06/23 11:22:48;;;;;;;21.45;14.48;;;;;;;24.19;59.02;98699.25;5018682;28;20148;-83
2021/06/23 11:25:23;;;;;;;22.52;15.27;;;;;;;24.29;59.22;98697.75;5016357;28;20049;-78
2021/06/23 11:28:07;;;;;;;23.52;14.18;;;;;;;24.49;59.27;98692.78;5015843;28;20033;-80
2021/06/23 11:30:42;;;;;;;19.42;13.85;;;;;;;24.66;59.36;98694.94;5014078;28;20034;-79
2021/06/23 11:33:29;;;;;;;20.63;13.75;;;;;;;24.88;59.33;98692.38;5011692;28;20030;-82
2021/06/23 11:36:05;;;;;;;20.38;14.65;;;;;;;25.04;58.18;98694.09;5012729;28;20025;-78
2021/06/23 11:38:34;;;;;;;20.05;13.90;;;;;;;25.11;58.36;98694.13;5015606;28;20124;-81
2021/06/23 11:41:01;;;;;;;18.90;13.73;;;;;;;25.07;57.94;98694.13;5013285;28;20116;-73
2021/06/23 11:43:27;;;;;;;23.65;14.13;;;;;;;24.96;58.17;98688.44;5014178;28;20022;-76
2021/06/23 11:45:53;;;;;;;19.83;14.75;;;;;;;24.86;57.75;98694.75;5014629;28;20037;-81
2021/06/23 11:48:19;;;;;;;18.40;13.95;;;;;;;24.73;57.92;98699.84;5013895;28;20500;-78
2021/06/23 11:50:46;;;;;;;19.60;13.93;;;;;;;24.63;58.13;98694.91;5021082;28;20033;-79
2021/06/23 11:53:14;;;;;;;20.98;13.65;;;;;;;24.59;58.47;98697.69;5019769;28;20035;-75
2021/06/23 11:55:40;;;;;;;18.80;13.88;;;;;;;24.67;58.80;98695.75;5019223;28;20022;-82
2021/06/23 11:58:05;;;;;;;16.42;12.82;;;;;;;24.83;58.36;98689.91;5019524;28;20022;-81
2021/06/23 12:00:32;;;;;;;21.90;14.18;;;;;;;24.93;58.49;98694.00;5020805;28;20441;-80
2021/06/23 12:02:59;;;;;;;18.42;13.13;;;;;;;25.06;58.17;98689.72;5018265;28;20349;-81
2021/06/23 12:05:26;;;;;;;17.10;12.77;;;;;;;25.06;57.69;98689.72;5018114;28;20041;-84
2021/06/23 12:07:52;;;;;;;21.08;13.07;;;;;;;24.98;57.73;98696.44;5018884;28;20030;-74
2021/06/23 12:10:19;;;;;;;17.45;13.73;;;;;;;25.03;58.43;98698.09;5016111;28;20055;-77
2021/06/23 12:12:45;;;;;;;17.27;13.60;;;;;;;24.94;58.09;98696.44;5016125;28;20104;-78
2021/06/23 12:15:11;;;;;;;23.38;14.48;;;;;;;24.82;57.77;98703.16;5018350;28;20022;-78
2021/06/23 12:17:37;;;;;;;22.65;16.08;;;;;;;24.72;58.06;98705.81;5013761;28;20359;-75
2021/06/23 12:20:09;;;;;;;23.48;15.43;;;;;;;24.64;58.14;98711.34;5013213;28;20537;-77
2021/06/23 12:22:38;;;;;;;23.38;15.77;;;;;;;24.62;58.34;98708.13;5008508;28;20032;-75
2021/06/23 12:25:06;;;;;;;22.33;14.05;;;;;;;24.57;58.21;98705.69;5011287;28;20506;-78
2021/06/23 12:27:32;;;;;;;25.95;16.23;;;;;;;24.44;58.21;98713.56;5012919;28;20085;-75
2021/06/23 12:29:58;;;;;;;24.58;16.00;;;;;;;24.31;58.30;98720.59;5012417;28;20041;-73
2021/06/23 12:32:24;;;;;;;26.38;17.15;;;;;;;24.15;58.46;98712.41;5011280;28;20030;-75
2021/06/23 12:34:49;;;;;;;25.08;17.13;;;;;;;24.10;58.45;98710.75;5016926;28;20089;-76
2021/06/23 12:37:15;;;;;;;24.58;16.88;;;;;;;24.05;58.59;98714.69;5011227;28;20025;-74
2021/06/23 12:39:40;;;;;;;25.35;18.20;;;;;;;23.98;58.98;98713.78;5015072;28;20026;-76
2021/06/23 12:42:06;;;;;;;24.30;17.90;;;;;;;23.89;58.98;98717.66;5009536;28;20053;-76
2021/06/23 12:44:32;;;;;;;23.45;16.40;;;;;;;23.87;59.23;98719.22;5011726;28;20034;-78
2021/06/23 12:46:57;;;;;;;26.38;16.52;;;;;;;23.90;59.40;98710.06;5012068;28;20469;-77
2021/06/23 12:49:24;;;;;;;26.92;16.77;;;;;;;23.92;59.34;98714.13;5013422;28;20104;-79
2021/06/23 12:51:50;;;;;;;22.17;16.55;;;;;;;23.89;59.58;98708.44;5012608;28;20022;-79
2021/06/23 12:54:16;;;;;;;25.10;15.88;;;;;;;23.87;59.43;98710.81;5010506;28;20490;-82
2021/06/23 12:56:42;;;;;;;23.50;16.65;;;;;;;23.82;59.74;98713.97;5013224;28;20072;-81
2021/06/23 12:59:07;;;;;;;24.35;16.80;;;;;;;23.78;59.70;98714.72;5014869;28;20034;-80
2021/06/23 13:01:33;;;;;;;24.48;15.98;;;;;;;23.82;60.00;98705.56;5014871;28;20034;-80
2021/06/23 13:03:58;;;;;;;24.92;16.55;;;;;;;23.84;59.93;98703.19;5013907;28;20022;-82
2021/06/23 13:06:23;;;;;;;24.25;15.90;;;;;;;23.96;59.94;98705.75;5014506;28;20030;-78
2021/06/23 13:08:49;;;;;;;27.52;18.02;;;;;;;24.14;60.17;98702.41;5012722;28;20114;-78
2021/06/23 13:11:15;;;;;;;23.80;17.25;;;;;;;24.32;59.84;98697.78;5012672;28;20030;-79
2021/06/23 13:13:41;;;;;;;24.52;16.35;;;;;;;24.45;59.38;98695.53;5013372;28;20125;-78
2021/06/23 13:16:11;;;;;;;24.10;16.95;;;;;;;24.53;59.76;98693.63;5012528;28;20121;-85
2021/06/23 13:18:37;;;;;;;26.73;16.77;;;;;;;24.65;59.41;98698.94;5013341;28;20443;-79
2021/06/23 13:21:03;;;;;;;28.35;17.75;;;;;;;24.76;58.76;98698.25;5013513;28;20049;-79
2021/06/23 13:23:28;;;;;;;29.02;18.83;;;;;;;24.87;58.52;98690.75;5013764;28;20030;-76
2021/06/23 13:25:54;;;;;;;24.35;16.60;;;;;;;24.91;58.56;98699.19;5009351;28;20448;-78
2021/06/23 13:28:20;;;;;;;25.67;17.30;;;;;;;24.94;58.46;98695.59;5011850;28;20068;-78
2021/06/23 13:30:46;;;;;;;26.30;16.02;;;;;;;24.94;58.82;98692.81;5011641;28;20036;-78
2021/06/23 13:33:11;;;;;;;26.50;16.88;;;;;;;24.89;58.12;98693.16;5012077;28;20029;-77
2021/06/23 13:35:37;;;;;;;26.05;17.73;;;;;;;24.84;58.21;98697.13;5013667;28;20081;-82
2021/06/23 13:38:03;;;;;;;23.95;17.92;;;;;;;24.85;58.33;98690.34;5013720;28;20072;-79
2021/06/23 13:40:28;;;;;;;26.52;16.52;;;;;;;24.90;58.51;98686.34;5012235;28;20086;-81
2021/06/23 13:42:54;;;;;;;23.08;16.23;;;;;;;24.93;58.11;98689.22;5014989;28;20413;-81
2021/06/23 13:45:19;;;;;;;25.88;17.50;;;;;;;24.93;58.53;98694.81;5016248;28;20540;-80
2021/06/23 13:47:46;;;;;;;21.27;15.95;;;;;;;24.91;58.46;98690.78;5014048;28;20389;-83
2021/06/23 13:50:15;;;;;;;25.83;16.92;;;;;;;24.94;58.57;98690.81;5013809;28;20034;-84
2021/06/23 13:52:41;;;;;;;25.73;17.35;;;;;;;24.96;58.30;98682.81;5015633;28;20076;-78
2021/06/23 13:55:08;;;;;;;31.70;18.90;;;;;;;24.95;58.26;98684.00;5014582;28;20025;-84
2021/06/23 13:57:42;;;;;;;29.85;17.77;;;;;;;25.04;58.29;98674.47;5014655;28;20034;-82
2021/06/23 14:00:09;;;;;;;24.17;16.75;;;;;;;25.07;58.12;98673.66;5013075;28;20072;-80
2021/06/23 14:02:35;;;;;;;24.45;18.00;;;;;;;25.27;58.23;98672.22;5015060;28;20108;-82
2021/06/23 14:05:01;;;;;;;23.40;17.38;;;;;;;25.53;57.58;98669.59;5015274;28;20046;-78
2021/06/23 14:07:26;;;;;;;24.00;17.38;;;;;;;25.60;57.22;98671.63;5013267;28;20647;-83
2021/06/23 14:09:52;;;;;;;26.83;19.10;;;;;;;25.70;56.91;98670.91;5013757;28;20034;-83
2021/06/23 14:12:17;;;;;;;35.50;18.10;;;;;;;25.70;56.61;98668.88;5013455;28;20107;-82
2021/06/23 14:14:43;;;;;;;30.00;19.17;;;;;;;25.70;56.53;98674.50;5013218;28;20034;-79
2021/06/23 14:17:08;;;;;;;27.50;17.92;;;;;;;25.69;56.40;98672.88;5013673;28;20029;-82
2021/06/23 14:19:34;;;;;;;24.25;16.58;;;;;;;25.70;57.24;98682.13;5014430;28;20029;-80
2021/06/23 14:21:59;;;;;;;23.92;16.80;;;;;;;25.69;57.28;98675.69;5010744;28;20477;-74
2021/06/23 14:24:25;;;;;;;25.15;17.27;;;;;;;25.64;57.44;98684.50;5012770;28;20022;-90
2021/06/23 14:26:51;;;;;;;22.10;15.82;;;;;;;25.52;57.33;98688.44;5014139;28;20045;-84
2021/06/23 14:29:17;;;;;;;24.10;17.67;;;;;;;25.36;57.04;98693.53;5012274;28;20034;-80
2021/06/23 14:31:43;;;;;;;27.02;17.92;;;;;;;25.27;57.21;98689.06;5013372;28;20880;-76
2021/06/23 14:34:09;;;;;;;23.77;17.38;;;;;;;25.16;57.71;98695.78;5015560;28;20116;-80
2021/06/23 14:36:35;;;;;;;28.27;17.30;;;;;;;25.02;57.59;98697.28;5015719;28;20026;-78
2021/06/23 14:39:01;;;;;;;30.92;18.30;;;;;;;24.91;57.56;98694.41;5012554;28;20439;-80
2021/06/23 14:41:27;;;;;;;25.73;17.35;;;;;;;24.78;57.85;98688.28;5015930;28;20029;-81
2021/06/23 14:43:53;;;;;;;25.67;16.92;;;;;;;24.67;57.97;98693.75;5014260;28;20409;-87
2021/06/23 14:46:18;;;;;;;28.42;18.20;;;;;;;24.62;58.34;98694.13;5014560;28;20041;-80
2021/06/23 14:48:43;;;;;;;31.88;17.65;;;;;;;24.56;58.26;98692.84;5011979;28;20038;-80
2021/06/23 14:51:09;;;;;;;24.13;16.85;;;;;;;24.42;58.46;98696.31;5013277;28;20038;-79
2021/06/23 14:53:36;;;;;;;25.63;16.80;;;;;;;24.31;59.28;98704.59;5014242;28;20026;-79
2021/06/23 14:56:02;;;;;;;23.95;17.00;;;;;;;24.22;59.38;98706.91;5009925;28;20052;-79
2021/06/23 14:58:27;;;;;;;28.60;18.27;;;;;;;24.16;59.60;98702.81;5013852;28;20018;-81
2021/06/23 15:00:52;;;;;;;21.48;16.88;;;;;;;24.12;60.07;98701.97;5013948;28;20030;-81
2021/06/23 15:03:18;;;;;;;24.27;16.50;;;;;;;24.06;59.99;98705.09;5014819;28;20021;-83
2021/06/23 15:05:43;;;;;;;25.40;19.10;;;;;;;24.12;59.84;98693.56;5013669;28;20022;-84
2021/06/23 15:08:09;;;;;;;25.75;17.50;;;;;;;24.13;59.92;98698.78;5014498;28;20022;-80
2021/06/23 15:10:35;;;;;;;26.63;18.90;;;;;;;24.15;60.74;98688.00;5013842;28;20033;-86
2021/06/23 15:13:01;;;;;;;28.27;17.95;;;;;;;24.13;60.16;98676.34;5009907;28;20048;-82
2021/06/23 15:15:27;;;;;;;23.45;16.63;;;;;;;24.15;60.38;98678.78;5012090;28;20080;-82
2021/06/23 15:17:52;;;;;;;49.97;18.48;;;;;;;24.17;60.18;98676.41;5008980;28;20030;-82
2021/06/23 15:20:18;;;;;;;27.63;19.52;;;;;;;24.21;60.38;98671.66;5012645;28;20029;-83
2021/06/23 15:22:43;;;;;;;46.88;27.10;;;;;;;24.31;60.54;98673.75;5012012;28;20030;-82
2021/06/23 15:25:10;;;;;;;28.33;19.80;;;;;;;24.32;60.44;98680.19;5010174;28;20034;-80
2021/06/23 15:27:35;;;;;;;27.70;18.48;;;;;;;24.33;60.26;98673.38;5011385;28;20947;-84
2021/06/23 15:30:03;;;;;;;26.10;18.15;;;;;;;24.40;60.07;98692.25;5011579;28;20112;-82
2021/06/23 15:32:29;;;;;;;26.05;18.15;;;;;;;24.36;59.84;98687.44;5013034;28;20053;-85
2021/06/23 15:34:54;;;;;;;24.60;17.02;;;;;;;24.31;59.82;98692.59;5010847;28;20118;-78
2021/06/23 15:37:20;;;;;;;26.95;17.92;;;;;;;24.27;59.60;98684.13;5011488;28;20044;-83
2021/06/23 15:39:45;;;;;;;31.20;18.63;;;;;;;24.23;59.87;98684.09;5012387;28;20056;-80
2021/06/23 15:42:11;;;;;;;26.33;16.92;;;;;;;24.21;59.76;98697.66;5011719;28;20033;-82
2021/06/23 15:44:38;;;;;;;22.77;16.67;;;;;;;24.20;59.99;98686.88;5011120;28;20402;-82
2021/06/23 15:47:09;;;;;;;24.50;17.30;;;;;;;24.18;60.56;98694.84;5011537;28;20030;-80
2021/06/23 15:49:35;;;;;;;22.85;17.98;;;;;;;24.10;60.21;98687.53;5016676;28;20035;-81
2021/06/23 15:52:00;;;;;;;21.00;15.38;;;;;;;24.00;60.24;98692.63;5013963;28;20026;-81
2021/06/23 15:54:26;;;;;;;27.10;17.77;;;;;;;23.96;60.28;98697.34;5011545;28;20034;-82
2021/06/23 15:56:51;;;;;;;21.83;15.30;;;;;;;23.88;60.46;98707.66;5009885;28;20124;-82
2021/06/23 15:59:17;;;;;;;25.65;16.90;;;;;;;23.82;61.16;98711.19;5011335;28;20049;-81
2021/06/23 16:01:42;;;;;;;26.85;18.05;;;;;;;23.73;60.92;98700.22;5011354;28;20443;-84
2021/06/23 16:04:08;;;;;;;26.95;17.45;;;;;;;23.68;61.10;98703.38;5014172;28;20053;-85
2021/06/23 16:06:33;;;;;;;23.95;16.98;;;;;;;23.64;60.97;98706.13;5015299;28;20029;-85
2021/06/23 16:09:00;;;;;;;25.95;17.25;;;;;;;23.58;61.34;98713.22;5015198;28;20018;-84
2021/06/23 16:11:26;;;;;;;25.65;17.90;;;;;;;23.51;61.66;98713.13;5014658;28;20113;-85
2021/06/23 16:13:51;;;;;;;21.10;15.60;;;;;;;23.50;61.83;98717.94;5014670;28;20184;-84
2021/06/23 16:16:16;;;;;;;25.90;17.63;;;;;;;23.40;62.17;98708.19;5015617;28;20469;-83
2021/06/23 16:18:42;;;;;;;25.45;16.40;;;;;;;23.35;61.96;98722.50;5015019;28;20033;-84
2021/06/23 16:21:12;;;;;;;26.52;16.73;;;;;;;23.34;62.58;98720.91;5015090;28;20092;-82
2021/06/23 16:23:43;;;;;;;26.98;18.20;;;;;;;23.29;62.40;98727.59;5014453;28;20029;-84
2021/06/23 16:26:09;;;;;;;23.42;16.35;;;;;;;23.25;62.67;98720.34;5014069;28;20045;-83
2021/06/23 16:28:34;;;;;;;26.65;17.38;;;;;;;23.23;62.62;98731.09;5014387;28;20029;-83
2021/06/23 16:31:00;;;;;;;21.23;15.80;;;;;;;23.17;62.51;98728.59;5010155;28;20057;-81
2021/06/23 16:33:25;;;;;;;23.40;17.52;;;;;;;23.12;63.10;98720.50;5007676;28;20084;-83
2021/06/23 16:35:51;;;;;;;26.45;17.52;;;;;;;23.11;62.89;98730.06;5013281;28;20029;-84
2021/06/23 16:38:22;;;;;;;25.05;16.50;;;;;;;23.10;62.97;98725.66;5013234;28;20025;-81
2021/06/23 16:40:48;;;;;;;24.60;16.23;;;;;;;23.07;63.20;98729.22;5013055;28;20100;-84
2021/06/23 16:43:14;;;;;;;23.05;16.30;;;;;;;23.02;63.24;98727.53;5013362;28;20054;-80
2021/06/23 16:45:39;;;;;;;23.65;16.05;;;;;;;22.99;63.31;98725.50;5013359;28;20034;-81
2021/06/23 16:48:05;;;;;;;26.02;16.95;;;;;;;22.96;63.85;98740.22;5013319;28;20022;-81
2021/06/23 16:50:30;;;;;;;22.80;15.38;;;;;;;22.92;64.00;98739.34;5012294;28;20490;-84
2021/06/23 16:52:56;;;;;;;23.38;16.73;;;;;;;22.93;63.96;98745.75;5013045;28;20116;-85
2021/06/23 16:58:06;;;;;;;24.80;18.13;;;;;;;22.83;63.96;98742.41;5012647;28;20107;-87
2021/06/23 17:00:32;;;;;;;24.30;17.63;;;;;;;22.83;63.93;98745.19;5011871;28;20057;-85
2021/06/23 17:02:57;;;;;;;24.90;16.95;;;;;;;22.83;64.26;98750.78;5012869;28;20882;-83
2021/06/23 17:05:22;;;;;;;24.27;16.63;;;;;;;22.87;64.50;98751.66;5014482;28;20433;-86
2021/06/23 17:07:49;;;;;;;23.88;16.75;;;;;;;22.88;64.59;98746.88;5012320;28;20026;-82
2021/06/23 17:10:15;;;;;;;22.30;16.80;;;;;;;22.83;64.15;98750.78;5010820;28;20029;-82
2021/06/23 17:12:40;;;;;;;24.83;17.77;;;;;;;22.79;64.26;98744.31;5012528;28;20046;-81
2021/06/23 17:15:07;;;;;;;36.47;23.90;;;;;;;22.78;64.64;98739.13;5012783;28;20065;-83
2021/06/23 17:17:34;;;;;;;32.90;21.27;;;;;;;22.74;64.51;98742.66;5012007;28;20026;-84
2021/06/23 17:19:59;;;;;;;29.52;21.80;;;;;;;22.73;64.46;98740.22;5012382;28;20033;-83
2021/06/23 17:22:24;;;;;;;23.45;18.38;;;;;;;22.71;64.84;98748.97;5012496;28;20038;-84
2021/06/23 17:24:50;;;;;;;23.73;17.45;;;;;;;22.69;64.65;98748.53;5012678;28;20076;-83
2021/06/23 17:27:15;;;;;;;24.38;17.83;;;;;;;22.65;64.44;98746.84;5012047;28;20059;-83
2021/06/23 17:29:41;;;;;;;31.70;21.58;;;;;;;22.63;64.74;98738.00;5012376;28;20026;-83
2021/06/23 17:32:09;;;;;;;34.97;22.85;;;;;;;22.61;64.79;98741.19;5011325;28;20065;-81
2021/06/23 17:34:37;;;;;;;34.83;23.50;;;;;;;22.57;64.72;98738.34;5012174;28;20096;-83
2021/06/23 17:37:03;;;;;;;30.58;20.17;;;;;;;22.58;65.06;98741.94;5012239;28;20026;-84
2021/06/23 17:39:28;;;;;;;31.60;21.00;;;;;;;22.54;64.75;98732.66;5012429;28;20030;-85
2021/06/23 17:41:54;;;;;;;25.35;17.38;;;;;;;22.53;64.91;98731.88;5011796;28;20029;-84
2021/06/23 17:44:19;;;;;;;24.15;18.85;;;;;;;22.51;65.37;98737.03;5012731;28;20100;-86
2021/06/23 17:46:45;;;;;;;29.33;19.52;;;;;;;22.48;65.11;98743.34;5012073;28;20032;-84
2021/06/23 17:49:10;;;;;;;31.25;21.20;;;;;;;22.45;65.24;98749.69;5012395;28;20057;-82
2021/06/23 17:51:36;;;;;;;28.50;19.45;;;;;;;22.39;65.06;98754.75;5011689;28;20124;-84
2021/06/23 17:54:01;;;;;;;27.83;19.58;;;;;;;22.34;65.82;98748.63;5011543;28;20037;-82
2021/06/23 17:56:27;;;;;;;28.10;18.13;;;;;;;22.27;65.89;98760.47;5011350;28;20032;-82
2021/06/23 17:58:52;;;;;;;23.08;16.70;;;;;;;22.20;65.45;98766.72;5015670;28;20030;-82
2021/06/23 18:01:17;;;;;;;25.17;18.42;;;;;;;22.13;65.96;98766.56;5017619;28;20105;-83
2021/06/23 18:03:43;;;;;;;27.00;18.35;;;;;;;22.08;65.72;98770.44;5018155;28;20021;-84
2021/06/23 18:06:10;;;;;;;29.58;18.60;;;;;;;22.07;66.89;98776.41;5017794;28;20095;-86
2021/06/23 18:08:35;;;;;;;28.35;20.10;;;;;;;22.04;66.33;98775.16;5016586;28;20036;-82
2021/06/23 18:11:01;;;;;;;25.88;18.92;;;;;;;22.04;65.93;98788.31;5014646;28;20034;-82
2021/06/23 18:13:28;;;;;;;24.35;18.00;;;;;;;22.03;66.05;98775.53;5015203;28;20084;-83
2021/06/23 18:15:54;;;;;;;25.20;18.17;;;;;;;22.01;65.97;98778.66;5014729;28;20069;-83
2021/06/23 18:18:20;;;;;;;28.67;18.13;;;;;;;21.99;65.84;98770.66;5011906;28;20067;-84
2021/06/23 18:20:47;;;;;;;27.15;19.08;;;;;;;21.97;66.44;98764.63;5013736;28;20022;-84
2021/06/23 18:23:13;;;;;;;26.20;19.35;;;;;;;21.94;66.05;98762.56;5013766;28;20029;-82
2021/06/23 18:25:38;;;;;;;28.15;18.48;;;;;;;21.93;65.95;98763.75;5013267;28;20025;-84
2021/06/23 18:28:06;;;;;;;24.00;15.80;;;;;;;21.93;66.27;98755.38;5014366;28;20075;-84
2021/06/23 18:30:34;;;;;;;30.98;19.70;;;;;;;21.91;66.19;98760.50;5014936;28;20030;-83
2021/06/23 18:33:00;;;;;;;28.75;21.10;;;;;;;21.88;66.28;98758.44;5015498;28;20116;-82
2021/06/23 18:35:26;;;;;;;34.50;21.33;;;;;;;21.85;66.46;98762.78;5014173;28;20061;-83
2021/06/23 18:37:52;;;;;;;39.25;24.98;;;;;;;21.83;66.26;98759.56;5015236;28;20053;-82
2021/06/23 18:40:18;;;;;;;31.27;20.30;;;;;;;21.80;66.17;98767.84;5015748;28;20034;-82
2021/06/23 18:42:44;;;;;;;28.00;19.83;;;;;;;21.77;66.23;98766.59;5017629;28;20481;-81
2021/06/23 18:45:11;;;;;;;32.08;20.95;;;;;;;21.74;66.74;98758.94;5014371;28;20105;-82
2021/06/23 18:47:37;;;;;;;32.10;22.23;;;;;;;21.74;66.60;98770.09;5013588;28;20026;-80
2021/06/23 18:50:05;;;;;;;36.65;23.80;;;;;;;21.74;66.38;98767.31;5015040;28;20446;-81